This is the latest recevied weather packets stored in our database for station/object NR6G-5. If no packets are shown the sender has not sent any weather packets the latest 10 day(s).
| Time | Temp. | Humidity | Pressure | Rain* | Wind** | Luminosity | Snow |
|---|---|---|---|---|---|---|---|
| 1777799008 | 17.22° C | 63% | 1008.7 hPa | 0 mm | - | - | - |
| 1777798707 | 17.22° C | 63% | 1008.6 hPa | 0 mm | - | - | - |
| 1777797506 | 17.78° C | 60% | 1008.8 hPa | 0 mm | - | - | - |
| 1777796907 | 18.33° C | 59% | 1008.6 hPa | 0 mm | - | - | - |
| 1777796608 | 18.89° C | 58% | 1008.7 hPa | 0 mm | - | - | - |
| 1777796226 | 18.89° C | 57% | 1008.6 hPa | 0 mm | - | - | - |
| 1777795926 | 19.44° C | 56% | 1008.5 hPa | 0 mm | - | - | - |
| 1777795627 | 19.44° C | 55% | 1008.3 hPa | 0 mm | - | - | - |
| 1777795325 | 20° C | 53% | 1008.2 hPa | 0 mm | - | - | - |
| 1777795026 | 20° C | 52% | 1008.2 hPa | 0 mm | - | - | - |
| 1777794728 | 20° C | 52% | 1008.1 hPa | 0 mm | - | - | - |
| 1777794425 | 20° C | 53% | 1007.9 hPa | 0 mm | - | - | - |
| 1777794126 | 19.44° C | 53% | 1007.9 hPa | 0 mm | - | - | - |
| 1777793826 | 18.89° C | 54% | 1007.8 hPa | 0 mm | - | - | - |
| 1777793230 | 18.89° C | 51% | 1007.9 hPa | 0 mm | - | - | - |
| 1777792928 | 20° C | 48% | 1007.9 hPa | 0 mm | - | - | - |
| 1777792628 | 20.56° C | 48% | 1007.8 hPa | 0 mm | - | - | - |
| 1777792328 | 21.67° C | 45% | 1007.7 hPa | 0 mm | - | - | - |
| 1777791730 | 22.78° C | 39% | 1007.6 hPa | 0 mm | - | - | - |
| 1777791140 | 22.78° C | 35% | 1007.7 hPa | 0 mm | - | - | - |
| 1777790539 | 23.89° C | 32% | 1007.7 hPa | 0 mm | - | - | - |
| 1777790239 | 23.89° C | 31% | 1007.7 hPa | 0 mm | - | - | - |
| 1777789939 | 23.33° C | 31% | 1007.7 hPa | 0 mm | - | - | - |
| 1777789640 | 23.33° C | 32% | 1007.7 hPa | 0 mm | - | - | - |
| 1777789339 | 23.33° C | 33% | 1007.6 hPa | 0 mm | - | - | - |
* Rain latest hour (hover to see other rain measurements)
** Current wind speed in m/s (hover to see current wind gust speed)